Time;durP1;ratioP1;P1;durP2;ratioP2;P2;SDS_P1;SDS_P2;PMS_P1;PMS_P2;Temp;Humidity;BMP_temperature;BMP_pressure;BME280_temperature;BME280_humidity;BME280_pressure;Samples;Min_cycle;Max_cycle;Signal;HPM_P1;HPM_P2
2020/12/21 07:31:53;;;;;;;4.20;3.80;;;4.20;80.20;;;;;;5093352;27;20540;-67
2020/12/21 07:34:19;;;;;;;5.37;4.97;;;4.20;80.70;;;;;;5098969;28;20211;-68
2020/12/21 07:36:46;;;;;;;5.80;5.30;;;4.50;81.20;;;;;;5095338;28;20207;-64
2020/12/21 07:39:15;;;;;;;5.90;5.40;;;4.90;80.90;;;;;;5096054;28;20203;-64
2020/12/21 07:41:45;;;;;;;6.43;5.93;;;5.30;80.20;;;;;;5094196;28;20597;-67
2020/12/21 07:44:14;;;;;;;5.83;5.37;;;5.80;79.60;;;;;;5098960;28;20196;-66
2020/12/21 07:46:45;;;;;;;6.67;6.07;;;6.20;78.60;;;;;;5100202;28;20208;-67
2020/12/21 07:49:13;;;;;;;6.30;5.70;;;6.50;77.60;;;;;;5099538;28;20195;-66
2020/12/21 07:51:44;;;;;;;6.30;5.70;;;6.80;76.80;;;;;;5097318;28;20235;-67
2020/12/21 07:54:13;;;;;;;6.07;5.57;;;7.10;76.10;;;;;;5093751;28;20247;-66
2020/12/21 07:56:40;;;;;;;5.93;5.43;;;7.30;75.40;;;;;;5098796;28;20235;-67
2020/12/21 07:59:25;;;;;;;6.30;5.70;;;7.50;74.90;;;;;;5096111;28;20680;-68
2020/12/21 08:01:57;;;;;;;5.60;5.10;;;7.70;74.80;;;;;;5097693;28;20227;-63
2020/12/21 08:04:25;;;;;;;6.77;6.17;;;7.80;74.40;;;;;;5100888;28;20207;-61
2020/12/21 08:06:52;;;;;;;7.77;7.07;;;8.00;74.30;;;;;;5093050;28;20204;-62
2020/12/21 08:09:19;;;;;;;8.03;7.23;;;8.20;74.10;;;;;;5098047;28;20234;-61
2020/12/21 08:11:46;;;;;;;7.33;6.73;;;8.30;74.20;;;;;;5093272;28;20312;-68
2020/12/21 08:14:17;;;;;;;7.47;6.87;;;8.50;74.30;;;;;;5097110;28;20313;-67
2020/12/21 08:16:43;;;;;;;7.20;6.60;;;8.70;74.20;;;;;;5099753;28;20753;-67
2020/12/21 08:19:13;;;;;;;7.00;6.40;;;9.00;74.20;;;;;;5095592;28;20211;-67
2020/12/21 08:21:41;;;;;;;7.43;6.83;;;9.20;74.80;;;;;;5096992;28;20672;-67
2020/12/21 08:24:10;;;;;;;7.37;6.77;;;9.40;73.50;;;;;;5095861;28;20200;-66
2020/12/21 08:26:37;;;;;;;7.30;6.47;;;9.70;73.10;;;;;;5094004;28;20326;-67
2020/12/21 08:29:05;;;;;;;7.30;6.67;;;9.90;72.50;;;;;;5087496;28;20208;-67
2020/12/21 08:31:32;;;;;;;6.77;6.17;;;10.20;72.00;;;;;;5091110;28;20654;-65
2020/12/21 08:34:05;;;;;;;6.83;6.27;;;10.30;71.30;;;;;;5094590;28;20207;-66
2020/12/21 08:36:34;;;;;;;6.87;6.27;;;10.50;70.80;;;;;;5097344;28;20215;-66
2020/12/21 08:39:13;;;;;;;7.00;6.40;;;10.70;70.30;;;;;;5095817;28;20225;-66
2020/12/21 08:41:43;;;;;;;7.00;6.40;;;10.80;69.70;;;;;;5091979;28;20642;-68
2020/12/21 08:44:17;;;;;;;7.20;6.60;;;10.90;69.60;;;;;;5083992;28;20204;-67
2020/12/21 08:46:48;;;;;;;7.00;6.40;;;10.90;69.10;;;;;;5078866;28;20310;-68
2020/12/21 08:49:15;;;;;;;6.60;6.10;;;11.10;69.00;;;;;;5082809;28;20250;-67
2020/12/21 08:51:42;;;;;;;6.37;5.87;;;11.20;69.00;;;;;;5082795;28;20255;-66
2020/12/21 08:54:10;;;;;;;6.67;6.10;;;11.20;68.70;;;;;;5115532;22;20240;-65
2020/12/21 08:56:36;;;;;;;6.80;6.23;;;11.30;68.50;;;;;;5056054;28;20682;-65
2020/12/21 08:59:03;;;;;;;7.67;6.97;;;11.40;68.30;;;;;;5056331;28;20252;-63
2020/12/21 09:01:29;;;;;;;7.47;6.77;;;11.60;68.30;;;;;;5056886;28;20217;-63
2020/12/21 09:03:56;;;;;;;7.47;6.73;;;11.60;68.00;;;;;;5055023;28;20224;-65
2020/12/21 09:06:24;;;;;;;7.13;6.53;;;11.80;67.90;;;;;;5069896;28;20302;-65
2020/12/21 09:08:51;;;;;;;7.07;6.47;;;11.80;67.60;;;;;;5074961;28;20204;-66
2020/12/21 09:11:21;;;;;;;6.70;6.10;;;11.90;67.50;;;;;;5072773;28;20225;-64
2020/12/21 09:13:48;;;;;;;6.33;5.83;;;12.10;67.40;;;;;;5075962;28;20229;-64
2020/12/21 09:16:19;;;;;;;5.90;5.40;;;12.20;67.30;;;;;;5074006;28;20219;-66
2020/12/21 09:18:46;;;;;;;6.63;6.03;;;12.30;66.90;;;;;;5072242;28;20643;-63
2020/12/21 09:21:21;;;;;;;6.07;5.63;;;12.40;66.90;;;;;;5077502;28;20254;-64
2020/12/21 09:23:49;;;;;;;5.70;5.20;;;12.50;67.00;;;;;;5076899;28;20223;-64
2020/12/21 09:26:16;;;;;;;5.87;5.37;;;12.60;66.20;;;;;;5073209;28;20217;-70
2020/12/21 09:28:43;;;;;;;5.93;5.07;;;12.60;66.00;;;;;;5078353;28;20200;-64
2020/12/21 09:31:11;;;;;;;6.20;5.70;;;12.70;65.80;;;;;;5078235;28;20236;-65
2020/12/21 09:33:38;;;;;;;5.50;5.07;;;12.80;65.70;;;;;;5079861;28;20247;-65
2020/12/21 09:36:06;;;;;;;5.77;5.30;;;12.90;65.70;;;;;;5076934;28;20835;-64
2020/12/21 09:38:32;;;;;;;5.63;5.13;;;13.10;65.70;;;;;;5079077;28;20388;-64
2020/12/21 09:40:59;;;;;;;6.07;5.50;;;13.20;65.50;;;;;;5078883;28;20197;-65
2020/12/21 09:43:25;;;;;;;6.27;5.70;;;13.30;65.30;;;;;;5078665;28;20216;-64
2020/12/21 09:45:53;;;;;;;5.57;5.13;;;13.50;65.00;;;;;;5075901;28;20216;-66
2020/12/21 09:48:19;;;;;;;6.37;5.73;;;13.60;64.70;;;;;;5078197;28;20219;-64
2020/12/21 09:50:46;;;;;;;6.67;6.07;;;13.70;64.20;;;;;;5078050;28;20582;-65
2020/12/21 09:53:12;;;;;;;6.77;6.17;;;13.80;63.90;;;;;;5076937;28;20201;-65
2020/12/21 09:55:39;;;;;;;6.17;5.67;;;13.90;63.60;;;;;;5077459;28;20212;-66
2020/12/21 09:58:05;;;;;;;5.50;5.00;;;14.00;63.30;;;;;;5077627;28;20232;-64
2020/12/21 10:00:32;;;;;;;5.73;5.23;;;14.10;63.10;;;;;;5074639;28;20205;-62
2020/12/21 10:02:59;;;;;;;5.73;5.17;;;14.10;63.10;;;;;;5077556;28;20686;-64
2020/12/21 10:05:25;;;;;;;5.80;5.30;;;14.20;62.80;;;;;;5077212;28;20220;-63
2020/12/21 10:07:52;;;;;;;5.33;4.83;;;14.30;62.80;;;;;;5076769;28;20829;-64
2020/12/21 10:10:18;;;;;;;6.03;4.80;;;14.40;62.90;;;;;;5076568;28;20225;-64
2020/12/21 10:12:45;;;;;;;5.27;4.77;;;14.50;62.80;;;;;;5075577;28;20273;-62
2020/12/21 10:15:11;;;;;;;5.23;4.73;;;14.70;62.60;;;;;;5071685;28;20686;-63
2020/12/21 10:17:38;;;;;;;3.87;3.57;;;14.80;62.30;;;;;;5074508;28;20200;-63
2020/12/21 10:20:05;;;;;;;5.27;3.97;;;14.90;62.20;;;;;;5074460;28;20196;-62
2020/12/21 10:22:32;;;;;;;4.70;4.00;;;15.00;62.10;;;;;;5070569;28;20255;-63
2020/12/21 10:24:58;;;;;;;5.43;3.77;;;15.10;62.00;;;;;;5071913;28;20236;-63
2020/12/21 10:27:25;;;;;;;4.50;3.77;;;15.20;61.90;;;;;;5073088;28;20220;-59
2020/12/21 10:29:51;;;;;;;4.53;4.13;;;15.30;61.60;;;;;;5069572;28;20205;-63
2020/12/21 10:32:17;;;;;;;4.17;3.77;;;15.50;61.40;;;;;;5071496;28;21123;-63
2020/12/21 10:34:44;;;;;;;4.73;3.93;;;15.50;61.00;;;;;;5072348;28;21953;-63
2020/12/21 10:37:11;;;;;;;4.10;3.73;;;15.60;60.60;;;;;;5074099;28;20217;-63
2020/12/21 10:39:37;;;;;;;3.93;3.57;;;15.60;60.40;;;;;;5069870;28;20572;-64
2020/12/21 10:42:06;;;;;;;5.17;4.67;;;15.60;60.30;;;;;;5070300;28;20193;-61
2020/12/21 10:44:33;;;;;;;7.47;5.90;;;15.60;60.80;;;;;;5067773;28;20274;-62
2020/12/21 10:46:59;;;;;;;6.70;5.20;;;15.60;59.90;;;;;;5073922;28;20706;-61
2020/12/21 10:49:26;;;;;;;5.60;5.00;;;15.50;59.90;;;;;;5072796;28;20697;-61
2020/12/21 10:51:52;;;;;;;4.53;4.13;;;15.50;60.00;;;;;;5068383;28;20303;-61
2020/12/21 10:54:20;;;;;;;5.87;4.30;;;15.50;60.00;;;;;;5074531;28;20289;-61
2020/12/21 10:56:51;;;;;;;4.73;4.00;;;15.40;59.90;;;;;;5072693;28;20209;-62
2020/12/21 10:59:17;;;;;;;4.70;3.77;;;15.40;59.90;;;;;;5075689;28;20209;-60
2020/12/21 11:01:46;;;;;;;4.07;3.67;;;15.30;59.80;;;;;;5074341;28;20726;-60
2020/12/21 11:04:13;;;;;;;4.23;3.80;;;15.30;59.80;;;;;;5071973;28;20709;-61
2020/12/21 11:06:39;;;;;;;6.20;3.80;;;15.20;59.80;;;;;;5072900;28;20205;-61
2020/12/21 11:09:06;;;;;;;4.43;4.03;;;15.20;59.80;;;;;;5074901;28;20250;-61
2020/12/21 11:11:34;;;;;;;4.10;3.70;;;15.10;59.90;;;;;;5074720;28;20225;-60
2020/12/21 11:14:03;;;;;;;4.40;4.00;;;15.10;59.90;;;;;;5073810;28;20254;-62
2020/12/21 11:16:30;;;;;;;4.87;4.47;;;15.00;59.90;;;;;;5070454;28;20249;-62
2020/12/21 11:18:57;;;;;;;4.50;4.10;;;15.00;59.90;;;;;;5072961;28;20212;-61
2020/12/21 11:21:24;;;;;;;4.30;3.90;;;15.00;59.80;;;;;;5067760;28;20272;-60
2020/12/21 11:23:50;;;;;;;4.43;4.00;;;14.90;59.80;;;;;;5071347;28;20323;-65
2020/12/21 11:26:18;;;;;;;4.07;3.70;;;14.80;59.70;;;;;;5072801;28;20565;-59
2020/12/21 11:28:45;;;;;;;5.20;4.70;;;14.80;59.70;;;;;;5074861;28;20662;-62
2020/12/21 11:31:15;;;;;;;8.17;6.53;;;14.70;59.70;;;;;;5068225;28;20224;-61
2020/12/21 11:33:42;;;;;;;7.30;6.60;;;14.70;59.60;;;;;;5068708;28;20240;-63
2020/12/21 11:36:08;;;;;;;8.10;7.37;;;14.60;59.70;;;;;;5073191;28;20201;-62
2020/12/21 11:38:35;;;;;;;8.20;7.50;;;14.50;59.70;;;;;;5074254;28;20590;-62
2020/12/21 11:41:01;;;;;;;7.50;6.80;;;14.50;59.70;;;;;;5064632;28;20298;-63
2020/12/21 11:43:28;;;;;;;6.63;6.07;;;14.40;59.70;;;;;;5068603;28;20205;-62
2020/12/21 11:45:55;;;;;;;7.13;6.43;;;14.40;59.70;;;;;;5073119;28;20760;-62
2020/12/21 11:48:21;;;;;;;7.00;6.40;;;14.40;59.60;;;;;;5072863;28;20201;-62
2020/12/21 11:50:48;;;;;;;7.50;6.90;;;14.30;59.50;;;;;;5074980;28;20789;-61
2020/12/21 11:53:15;;;;;;;7.70;7.00;;;14.20;59.40;;;;;;5073685;28;20219;-62
2020/12/21 11:55:41;;;;;;;8.40;7.70;;;14.20;59.50;;;;;;5076706;28;20228;-62
2020/12/21 11:58:08;;;;;;;11.00;9.90;;;14.10;59.50;;;;;;5076062;28;20292;-60
2020/12/21 12:00:34;;;;;;;13.97;12.57;;;14.10;59.50;;;;;;5074001;28;20225;-62
2020/12/21 12:03:01;;;;;;;14.13;12.83;;;14.00;59.50;;;;;;5073756;28;20209;-62
2020/12/21 12:05:28;;;;;;;8.90;8.10;;;13.90;59.50;;;;;;5064879;28;20233;-61
2020/12/21 12:07:54;;;;;;;7.10;6.50;;;13.90;59.50;;;;;;5075052;28;20204;-62
2020/12/21 12:10:21;;;;;;;6.33;5.80;;;13.80;59.50;;;;;;5074424;28;20228;-62
2020/12/21 12:12:47;;;;;;;7.07;5.70;;;13.70;59.60;;;;;;5072797;28;20560;-61
2020/12/21 12:15:14;;;;;;;6.50;6.00;;;13.70;59.80;;;;;;5071498;28;20738;-60
2020/12/21 12:17:40;;;;;;;5.47;5.07;;;13.60;59.80;;;;;;5076939;28;20205;-61
2020/12/21 12:20:08;;;;;;;6.20;5.70;;;13.60;59.90;;;;;;5078007;28;20209;-62
2020/12/21 12:22:35;;;;;;;5.87;5.37;;;13.60;60.10;;;;;;5078831;28;20224;-62
2020/12/21 12:25:01;;;;;;;6.50;5.90;;;13.60;60.10;;;;;;5079749;28;20224;-61
2020/12/21 12:27:27;;;;;;;6.40;5.90;;;13.50;60.20;;;;;;5079102;28;20209;-62
2020/12/21 12:29:54;;;;;;;5.70;5.20;;;13.50;60.30;;;;;;5078921;28;20200;-62
2020/12/21 12:32:20;;;;;;;6.30;5.80;;;13.50;60.20;;;;;;5076684;28;20205;-63
2020/12/21 12:34:47;;;;;;;6.17;5.67;;;13.50;60.20;;;;;;5080131;28;20256;-64
2020/12/21 12:37:14;;;;;;;6.10;5.60;;;13.60;60.30;;;;;;5080171;28;20200;-63
2020/12/21 12:39:41;;;;;;;6.33;5.83;;;13.60;60.30;;;;;;5080425;28;20689;-63
2020/12/21 12:42:11;;;;;;;6.57;5.50;;;13.60;60.30;;;;;;5077939;28;20193;-61
2020/12/21 12:44:37;;;;;;;5.73;5.23;;;13.60;60.30;;;;;;5076820;28;20228;-64
2020/12/21 12:47:04;;;;;;;6.17;5.67;;;13.60;60.30;;;;;;5071824;28;20608;-67
2020/12/21 12:49:30;;;;;;;5.80;5.40;;;13.60;60.30;;;;;;5080658;28;20204;-68
2020/12/21 12:51:56;;;;;;;5.73;5.20;;;13.60;60.20;;;;;;5078045;28;20247;-66
2020/12/21 12:54:24;;;;;;;6.63;6.13;;;13.60;60.20;;;;;;5078003;28;20310;-65
2020/12/21 12:56:50;;;;;;;5.90;5.43;;;13.60;60.20;;;;;;5078089;28;20227;-63
2020/12/21 12:59:16;;;;;;;6.60;6.10;;;13.60;60.10;;;;;;5077053;28;20261;-61
2020/12/21 13:01:43;;;;;;;6.60;6.00;;;13.60;60.10;;;;;;5075851;28;20204;-61
2020/12/21 13:04:09;;;;;;;6.37;5.80;;;13.60;60.00;;;;;;5079426;28;20266;-64
2020/12/21 13:06:36;;;;;;;6.60;6.10;;;13.60;60.00;;;;;;5078929;28;20699;-63
2020/12/21 13:09:03;;;;;;;6.63;6.10;;;13.60;60.00;;;;;;5071089;28;20203;-68
2020/12/21 13:11:30;;;;;;;7.07;6.47;;;13.50;59.90;;;;;;5072208;28;20724;-63
2020/12/21 13:13:56;;;;;;;6.43;5.93;;;13.50;60.00;;;;;;5077174;28;20236;-64
2020/12/21 13:16:23;;;;;;;6.40;5.80;;;13.50;59.90;;;;;;5076561;28;20201;-66
2020/12/21 13:18:50;;;;;;;6.10;5.60;;;13.50;59.80;;;;;;5080200;28;20264;-64
2020/12/21 13:21:18;;;;;;;5.77;5.27;;;13.50;59.80;;;;;;5078787;28;20239;-65
2020/12/21 13:23:45;;;;;;;6.30;5.80;;;13.40;59.80;;;;;;5079578;28;20235;-63
2020/12/21 13:26:15;;;;;;;6.50;5.90;;;13.40;59.80;;;;;;5077411;28;20670;-64
2020/12/21 13:28:46;;;;;;;5.97;5.37;;;13.40;59.90;;;;;;5078444;28;20212;-64
2020/12/21 13:31:13;;;;;;;5.90;5.40;;;13.40;60.00;;;;;;5076801;28;20221;-62
2020/12/21 13:33:40;;;;;;;5.20;4.70;;;13.40;60.10;;;;;;5076348;28;20236;-64
2020/12/21 13:36:08;;;;;;;5.90;5.30;;;13.40;60.20;;;;;;5078677;28;20205;-67
2020/12/21 13:38:38;;;;;;;5.10;4.70;;;13.40;60.20;;;;;;5073241;28;20627;-70
2020/12/21 13:41:05;;;;;;;5.43;5.03;;;13.40;60.10;;;;;;5077577;28;20209;-64
2020/12/21 13:43:32;;;;;;;5.70;5.20;;;13.30;60.10;;;;;;5071716;28;20208;-65
2020/12/21 13:45:59;;;;;;;5.30;4.90;;;13.30;60.00;;;;;;5072221;28;20204;-64
2020/12/21 13:48:26;;;;;;;5.27;4.87;;;13.30;60.00;;;;;;5073029;28;20226;-64
2020/12/21 13:50:52;;;;;;;4.87;4.47;;;13.30;60.10;;;;;;5076113;28;20224;-64
2020/12/21 13:53:19;;;;;;;4.97;4.57;;;13.20;60.10;;;;;;5075297;28;20501;-64
2020/12/21 13:55:45;;;;;;;4.87;4.50;;;13.20;60.20;;;;;;5076617;28;20235;-64
2020/12/21 13:58:11;;;;;;;5.07;4.63;;;13.20;60.20;;;;;;5075408;28;20213;-64
2020/12/21 14:00:41;;;;;;;4.57;4.17;;;13.20;60.40;;;;;;5075691;28;20669;-64
2020/12/21 14:03:08;;;;;;;4.37;3.97;;;13.20;60.40;;;;;;5073270;28;20258;-64
2020/12/21 14:05:35;;;;;;;4.90;4.50;;;13.20;60.40;;;;;;5074805;28;20255;-64
2020/12/21 14:08:05;;;;;;;4.90;4.50;;;13.20;60.50;;;;;;5075619;28;20215;-65
2020/12/21 14:10:32;;;;;;;5.83;5.33;;;13.20;60.50;;;;;;5076283;28;20224;-66
2020/12/21 14:12:59;;;;;;;4.93;4.53;;;13.20;60.50;;;;;;5077920;28;20816;-66
2020/12/21 14:15:25;;;;;;;5.43;4.93;;;13.20;60.50;;;;;;5078154;28;20243;-64
2020/12/21 14:17:51;;;;;;;5.00;4.60;;;13.20;60.50;;;;;;5077674;28;20205;-64
2020/12/21 14:20:19;;;;;;;5.20;4.70;;;13.20;60.60;;;;;;5077571;28;20209;-64
2020/12/21 14:22:46;;;;;;;5.30;4.90;;;13.10;60.60;;;;;;5078021;28;20716;-66
2020/12/21 14:25:12;;;;;;;5.33;4.87;;;13.10;60.60;;;;;;5078088;28;20251;-64
2020/12/21 14:27:38;;;;;;;5.40;4.90;;;13.10;60.70;;;;;;5077644;28;20229;-65
2020/12/21 14:30:05;;;;;;;5.10;4.70;;;13.20;61.60;;;;;;5078367;28;20212;-66
2020/12/21 14:32:31;;;;;;;5.10;4.70;;;13.10;60.80;;;;;;5077582;28;20201;-65
2020/12/21 14:34:58;;;;;;;4.40;4.10;;;13.20;60.80;;;;;;5074672;28;22221;-65
2020/12/21 14:37:25;;;;;;;4.73;4.33;;;13.10;60.70;;;;;;5078079;28;20208;-64
2020/12/21 14:39:51;;;;;;;4.20;3.90;;;13.20;60.80;;;;;;5077674;28;20585;-64
2020/12/21 14:42:18;;;;;;;5.43;5.03;;;13.10;60.80;;;;;;5074696;28;20709;-64
2020/12/21 14:44:44;;;;;;;4.67;4.37;;;13.10;60.80;;;;;;5078051;28;20314;-65
2020/12/21 14:47:11;;;;;;;4.83;4.43;;;13.10;60.70;;;;;;5077791;28;20254;-65
2020/12/21 14:49:37;;;;;;;5.17;4.77;;;13.10;60.70;;;;;;5078235;28;20207;-65
2020/12/21 14:52:03;;;;;;;4.67;4.37;;;13.00;60.60;;;;;;5067069;28;20247;-58
2020/12/21 14:54:31;;;;;;;4.97;4.57;;;13.00;60.60;;;;;;5068320;28;21553;-61
2020/12/21 14:56:57;;;;;;;4.70;4.40;;;13.00;60.60;;;;;;5078005;28;20230;-64
2020/12/21 14:59:24;;;;;;;4.77;4.37;;;12.90;61.30;;;;;;5078357;28;20201;-66
2020/12/21 15:01:56;;;;;;;4.33;4.03;;;12.90;60.60;;;;;;5073193;28;20658;-66
2020/12/21 15:04:23;;;;;;;4.80;4.40;;;12.80;60.60;;;;;;5077686;28;20231;-65
2020/12/21 15:06:49;;;;;;;4.17;3.87;;;12.80;60.80;;;;;;5077401;28;20212;-64
2020/12/21 15:09:17;;;;;;;4.50;4.10;;;12.70;60.80;;;;;;5076471;28;20694;-65
2020/12/21 15:11:45;;;;;;;4.60;4.20;;;12.70;60.90;;;;;;5075211;28;20275;-65
2020/12/21 15:14:12;;;;;;;4.10;3.80;;;12.70;61.00;;;;;;5075478;28;20247;-65
2020/12/21 15:16:38;;;;;;;4.47;4.07;;;12.70;61.00;;;;;;5076733;28;20690;-64
2020/12/21 15:19:05;;;;;;;4.20;3.90;;;12.60;60.90;;;;;;5075822;28;20204;-64
2020/12/21 15:21:33;;;;;;;4.47;4.07;;;12.60;60.90;;;;;;5076816;28;20213;-64
2020/12/21 15:23:59;;;;;;;5.13;4.73;;;12.60;61.00;;;;;;5073300;28;20225;-64
2020/12/21 15:26:26;;;;;;;4.60;4.20;;;12.50;61.00;;;;;;5077430;28;20269;-63
2020/12/21 15:28:53;;;;;;;5.30;4.90;;;12.50;61.00;;;;;;5093076;22;20212;-66
2020/12/21 15:31:20;;;;;;;4.37;3.97;;;12.40;61.00;;;;;;5068875;28;20228;-64
2020/12/21 15:33:47;;;;;;;4.60;4.20;;;12.40;61.10;;;;;;5074900;28;20597;-65
2020/12/21 15:36:13;;;;;;;4.40;4.00;;;12.40;61.00;;;;;;5076866;28;20236;-65
2020/12/21 15:38:40;;;;;;;4.60;4.20;;;12.30;61.00;;;;;;5075896;28;20204;-66
2020/12/21 15:41:06;;;;;;;4.70;4.30;;;12.30;61.10;;;;;;5064382;28;20335;-65
2020/12/21 15:43:33;;;;;;;4.10;3.80;;;12.20;61.20;;;;;;5065904;28;20213;-65
2020/12/21 15:46:00;;;;;;;4.53;4.13;;;12.20;61.20;;;;;;5066421;28;20258;-65
2020/12/21 15:48:26;;;;;;;5.40;4.90;;;12.20;61.20;;;;;;5064960;28;20205;-64
2020/12/21 15:50:53;;;;;;;4.90;4.50;;;12.10;61.30;;;;;;5065140;28;20241;-67
2020/12/21 15:53:20;;;;;;;4.87;4.47;;;12.10;61.30;;;;;;5069432;28;20265;-67
2020/12/21 15:55:46;;;;;;;4.80;4.40;;;12.10;61.30;;;;;;5070019;28;20221;-66
2020/12/21 15:58:13;;;;;;;4.17;3.83;;;12.10;61.30;;;;;;5068995;28;20765;-64
2020/12/21 16:00:40;;;;;;;4.47;4.07;;;12.10;61.40;;;;;;5069583;28;20258;-67
2020/12/21 16:03:08;;;;;;;4.60;4.30;;;12.00;61.30;;;;;;5070202;28;20200;-65
2020/12/21 16:05:34;;;;;;;4.80;4.40;;;12.00;61.30;;;;;;5070974;28;20232;-65
2020/12/21 16:08:01;;;;;;;5.07;4.67;;;12.00;61.20;;;;;;5066859;28;20232;-65
2020/12/21 16:10:27;;;;;;;4.50;4.20;;;12.00;61.20;;;;;;5067679;28;20243;-63
2020/12/21 16:12:54;;;;;;;4.70;4.30;;;12.00;61.20;;;;;;5069280;28;21193;-63
2020/12/21 16:15:20;;;;;;;4.50;4.10;;;11.90;61.20;;;;;;5070742;28;20209;-68
2020/12/21 16:17:47;;;;;;;4.40;4.00;;;11.90;61.20;;;;;;5066480;28;20208;-65
2020/12/21 16:20:14;;;;;;;4.67;4.27;;;11.90;61.30;;;;;;5065627;28;20225;-65
2020/12/21 16:22:40;;;;;;;4.50;4.20;;;11.90;61.30;;;;;;5068224;28;21051;-65
2020/12/21 16:25:08;;;;;;;4.27;3.97;;;11.80;61.20;;;;;;5065970;28;20642;-66
2020/12/21 16:27:34;;;;;;;4.23;3.90;;;11.90;62.20;;;;;;5067775;28;20243;-64
2020/12/21 16:30:03;;;;;;;3.60;3.33;;;11.80;61.40;;;;;;5068123;28;20328;-65
2020/12/21 16:32:29;;;;;;;4.67;4.27;;;11.80;61.40;;;;;;5068510;28;20229;-65
2020/12/21 16:34:56;;;;;;;4.63;4.23;;;11.80;61.40;;;;;;5068992;28;20282;-66
2020/12/21 16:37:23;;;;;;;4.63;3.93;;;11.80;61.40;;;;;;5068374;28;20209;-65
2020/12/21 16:39:50;;;;;;;4.57;4.17;;;11.80;61.50;;;;;;5067907;28;20259;-67
2020/12/21 16:42:17;;;;;;;4.20;3.90;;;11.80;61.50;;;;;;5068944;28;20285;-66
2020/12/21 16:44:45;;;;;;;3.83;3.53;;;11.80;61.50;;;;;;5068896;28;20257;-65
2020/12/21 16:47:11;;;;;;;4.43;4.07;;;11.80;61.60;;;;;;5069240;28;20739;-66
2020/12/21 16:49:38;;;;;;;4.43;4.03;;;11.80;61.60;;;;;;5068904;28;20228;-67
2020/12/21 16:52:04;;;;;;;4.37;4.07;;;11.70;61.60;;;;;;5069119;28;20221;-66
2020/12/21 16:54:32;;;;;;;4.27;3.97;;;11.70;61.60;;;;;;5068605;28;20212;-65
2020/12/21 16:56:59;;;;;;;4.17;3.87;;;11.70;61.90;;;;;;5069390;28;20634;-66
2020/12/21 16:59:25;;;;;;;4.07;3.77;;;11.70;61.60;;;;;;5069087;28;20228;-66
2020/12/21 17:01:55;;;;;;;3.77;3.47;;;11.70;61.60;;;;;;5067178;28;20205;-66
2020/12/21 17:04:22;;;;;;;3.47;3.17;;;11.70;61.60;;;;;;5069686;28;20209;-66
2020/12/21 17:06:49;;;;;;;3.83;3.53;;;11.70;61.70;;;;;;5068774;28;20692;-66
2020/12/21 17:09:16;;;;;;;4.07;3.67;;;11.70;61.80;;;;;;5070101;28;20225;-67
2020/12/21 17:11:44;;;;;;;3.77;3.47;;;11.70;61.80;;;;;;5068870;28;20228;-66
2020/12/21 17:14:11;;;;;;;4.10;3.77;;;11.70;61.90;;;;;;5070464;28;20361;-67
2020/12/21 17:16:37;;;;;;;3.47;3.17;;;11.70;61.90;;;;;;5069477;28;20232;-67
2020/12/21 17:19:04;;;;;;;3.80;3.50;;;11.70;61.80;;;;;;5067043;28;20235;-68
2020/12/21 17:21:30;;;;;;;3.67;3.37;;;11.70;61.70;;;;;;5068592;28;20216;-69
2020/12/21 17:23:57;;;;;;;4.20;3.80;;;11.80;61.70;;;;;;5068852;28;20209;-69
2020/12/21 17:26:24;;;;;;;4.17;3.87;;;11.80;61.70;;;;;;5069987;28;20201;-69
2020/12/21 17:28:52;;;;;;;3.80;3.50;;;11.80;61.60;;;;;;5064458;28;20677;-67
2020/12/21 17:31:18;;;;;;;4.10;3.73;;;11.90;61.40;;;;;;5061960;28;20232;-68
2020/12/21 17:33:51;;;;;;;3.70;3.40;;;11.90;61.30;;;;;;5063428;28;20206;-67
2020/12/21 17:36:17;;;;;;;4.17;3.83;;;11.90;61.20;;;;;;5066750;28;20201;-66
2020/12/21 17:38:44;;;;;;;4.13;3.80;;;11.90;61.00;;;;;;5067569;28;20261;-66
2020/12/21 17:41:10;;;;;;;4.13;3.83;;;11.90;61.00;;;;;;5068339;28;20201;-65
2020/12/21 17:43:37;;;;;;;4.37;3.97;;;11.80;60.80;;;;;;5068325;28;20227;-66
2020/12/21 17:46:05;;;;;;;4.37;3.97;;;11.90;60.90;;;;;;5067105;28;20296;-67
2020/12/21 17:48:32;;;;;;;3.80;3.50;;;11.80;60.70;;;;;;5064369;28;20212;-66
2020/12/21 17:50:58;;;;;;;4.20;3.90;;;11.80;60.60;;;;;;5066500;28;20236;-66
2020/12/21 17:53:28;;;;;;;4.40;4.00;;;11.80;60.50;;;;;;5067648;28;20201;-67
2020/12/21 17:55:55;;;;;;;4.40;4.00;;;11.80;60.50;;;;;;5061452;28;20653;-65
2020/12/21 17:58:22;;;;;;;4.23;3.90;;;11.70;60.50;;;;;;5065917;28;20209;-65
2020/12/21 18:00:49;;;;;;;4.20;3.90;;;11.70;60.40;;;;;;5063826;28;20736;-65
2020/12/21 18:03:16;;;;;;;4.43;4.03;;;11.70;60.50;;;;;;5064391;28;20209;-67
2020/12/21 18:05:44;;;;;;;4.07;3.77;;;11.60;60.50;;;;;;5063609;28;20209;-66
2020/12/21 18:08:10;;;;;;;3.90;3.60;;;11.60;60.60;;;;;;5067938;28;20231;-67
2020/12/21 18:10:37;;;;;;;3.90;3.60;;;11.60;60.60;;;;;;5066644;28;20235;-67
2020/12/21 18:13:05;;;;;;;4.20;3.83;;;11.60;60.70;;;;;;5066134;28;20220;-64
2020/12/21 18:15:32;;;;;;;4.10;3.80;;;11.60;60.80;;;;;;5063941;28;20211;-66
2020/12/21 18:17:58;;;;;;;4.40;4.03;;;11.60;60.90;;;;;;5065939;28;20665;-65
2020/12/21 18:20:25;;;;;;;4.60;4.07;;;11.60;60.80;;;;;;5067652;28;20298;-64
2020/12/21 18:22:52;;;;;;;5.10;4.60;;;11.60;60.70;;;;;;5065271;28;20209;-63
2020/12/21 18:25:18;;;;;;;5.17;4.67;;;11.60;60.60;;;;;;5065221;28;20312;-63
2020/12/21 18:27:45;;;;;;;4.43;4.10;;;11.60;60.50;;;;;;5066411;28;20700;-65
2020/12/21 18:30:11;;;;;;;4.03;3.73;;;11.60;60.50;;;;;;5064235;28;20233;-66
2020/12/21 18:32:39;;;;;;;4.53;4.13;;;11.60;60.60;;;;;;5065425;28;20270;-68
2020/12/21 18:35:05;;;;;;;4.43;4.13;;;11.50;60.50;;;;;;5060811;28;20300;-65
2020/12/21 18:37:33;;;;;;;5.03;4.63;;;11.60;60.50;;;;;;5064324;28;20209;-66
2020/12/21 18:39:59;;;;;;;4.63;4.33;;;11.50;60.40;;;;;;5061518;28;20259;-68
2020/12/21 18:42:26;;;;;;;4.60;4.20;;;11.50;60.40;;;;;;5062378;28;20201;-67
2020/12/21 18:44:52;;;;;;;4.93;4.53;;;11.50;60.50;;;;;;5065686;28;20223;-65
2020/12/21 18:47:21;;;;;;;4.57;4.17;;;11.50;60.60;;;;;;5064962;28;20217;-66
2020/12/21 18:49:47;;;;;;;4.40;4.00;;;11.50;60.60;;;;;;5063011;28;20348;-65
2020/12/21 18:52:18;;;;;;;4.77;4.37;;;11.50;60.70;;;;;;5062785;28;20702;-66
2020/12/21 18:54:45;;;;;;;4.57;4.20;;;11.50;60.70;;;;;;5066367;28;20213;-66
2020/12/21 18:57:11;;;;;;;4.70;4.33;;;11.50;60.80;;;;;;5064197;28;20208;-68
2020/12/21 18:59:39;;;;;;;5.00;4.60;;;11.50;60.80;;;;;;5063725;28;20239;-69
2020/12/21 19:02:06;;;;;;;5.60;5.10;;;11.60;60.80;;;;;;5062626;28;20273;-68
2020/12/21 19:04:33;;;;;;;5.10;4.70;;;11.60;60.70;;;;;;5065122;28;20523;-70
2020/12/21 19:07:00;;;;;;;5.23;4.73;;;11.60;60.60;;;;;;5062699;28;20284;-68
2020/12/21 19:09:26;;;;;;;5.50;5.00;;;11.60;60.60;;;;;;5064679;28;20307;-67
2020/12/21 19:11:56;;;;;;;5.20;4.77;;;11.60;60.60;;;;;;5063826;28;20822;-66
2020/12/21 19:14:22;;;;;;;5.17;4.67;;;11.60;60.60;;;;;;5063139;28;20221;-67
2020/12/21 19:16:49;;;;;;;4.93;4.53;;;11.60;60.50;;;;;;5063615;28;20254;-68
2020/12/21 19:19:18;;;;;;;5.20;4.80;;;11.60;60.40;;;;;;5063592;28;20377;-68
2020/12/21 19:21:45;;;;;;;5.80;5.30;;;11.60;60.40;;;;;;5060133;28;20212;-68
2020/12/21 19:24:12;;;;;;;5.50;4.93;;;11.60;60.30;;;;;;5064411;28;20201;-68
2020/12/21 19:26:38;;;;;;;5.43;4.93;;;11.60;60.40;;;;;;5063029;28;20456;-69
2020/12/21 19:29:06;;;;;;;5.27;4.87;;;11.60;60.40;;;;;;5065708;28;20297;-68
2020/12/21 19:31:34;;;;;;;5.27;4.87;;;11.50;60.50;;;;;;5063610;28;20232;-67
2020/12/21 19:34:01;;;;;;;5.23;4.83;;;11.60;60.60;;;;;;5063547;28;20215;-68
2020/12/21 19:36:28;;;;;;;4.80;4.40;;;11.50;60.50;;;;;;5062857;28;20634;-68
2020/12/21 19:38:55;;;;;;;5.13;4.73;;;11.60;60.60;;;;;;5066859;28;20661;-67
2020/12/21 19:41:22;;;;;;;5.73;5.23;;;11.60;60.60;;;;;;5065598;28;20338;-67
2020/12/21 19:43:49;;;;;;;4.97;4.57;;;11.60;60.60;;;;;;5061907;28;20236;-68
2020/12/21 19:46:17;;;;;;;4.90;4.50;;;11.60;60.60;;;;;;5063623;28;20209;-69
2020/12/21 19:48:44;;;;;;;5.23;4.83;;;11.60;60.50;;;;;;5057656;28;20219;-69
2020/12/21 19:51:11;;;;;;;4.93;4.53;;;11.60;60.40;;;;;;5062431;28;20232;-68
2020/12/21 19:53:39;;;;;;;5.40;4.90;;;11.60;60.40;;;;;;5064301;28;20197;-69
2020/12/21 19:56:06;;;;;;;5.23;4.73;;;11.60;60.40;;;;;;5066398;28;20196;-67
2020/12/21 19:58:32;;;;;;;5.27;4.87;;;11.60;60.40;;;;;;5066719;28;20205;-68
2020/12/21 20:00:59;;;;;;;5.17;4.67;;;11.60;60.50;;;;;;5063840;28;20235;-67
2020/12/21 20:03:26;;;;;;;5.03;4.53;;;11.60;60.60;;;;;;5065420;28;20255;-68
2020/12/21 20:05:53;;;;;;;5.00;4.60;;;11.60;60.60;;;;;;5067465;28;20215;-68
2020/12/21 20:08:20;;;;;;;5.17;4.67;;;11.60;60.70;;;;;;5064719;28;20213;-67
2020/12/21 20:10:47;;;;;;;5.30;4.80;;;11.70;60.80;;;;;;5063802;28;20224;-67
2020/12/21 20:13:14;;;;;;;5.37;4.97;;;11.70;60.80;;;;;;5067146;28;20292;-67
2020/12/21 20:15:41;;;;;;;4.77;4.30;;;11.70;60.80;;;;;;5065269;28;20282;-67
2020/12/21 20:18:07;;;;;;;4.40;4.03;;;11.70;60.80;;;;;;5067273;28;20205;-67